Time;durP1;ratioP1;P1;durP2;ratioP2;P2;SDS_P1;SDS_P2;PMS_P1;PMS_P2;Temp;Humidity;BMP_temperature;BMP_pressure;BME280_temperature;BME280_humidity;BME280_pressure;Samples;Min_cycle;Max_cycle;Signal;HPM_P1;HPM_P2
2022/08/27 00:00:59;;;;;;;;;;;;;;;;;;2106696;28;19935;-45
2022/08/27 00:02:00;;;;;;;;;;;;;;;;;;2106541;28;20428;-44
2022/08/27 00:03:01;;;;;;;;;;;;;;;;;;2106641;28;20558;-43
2022/08/27 00:04:02;;;;;;;;;;;;;;;;;;2106698;28;19924;-42
2022/08/27 00:05:03;;;;;;;;;;;;;;;;;;2106590;28;19924;-44
2022/08/27 00:06:04;;;;;;;;;;;;;;;;;;2106783;28;19924;-43
2022/08/27 00:07:05;;;;;;;;;;;;;;;;;;2106417;28;19924;-43
2022/08/27 00:08:06;;;;;;;;;;;;;;;;;;2106838;28;19928;-44
2022/08/27 00:09:07;;;;;;;;;;;;;;;;;;2106559;28;19947;-43
2022/08/27 00:10:08;;;;;;;;;;;;;;;;;;2106505;28;20389;-43
2022/08/27 00:11:09;;;;;;;;;;;;;;;;;;2106444;28;19935;-43
2022/08/27 00:12:10;;;;;;;;;;;;;;;;;;2106561;28;19931;-43
2022/08/27 00:13:10;;;;;;;;;;;;;;;;;;2106544;28;19970;-43
2022/08/27 00:14:11;;;;;;;;;;;;;;;;;;2106649;28;19932;-44
2022/08/27 00:15:14;;;;;;;;;;;;;;;;;;2106691;28;19928;-43
2022/08/27 00:16:15;;;;;;;;;;;;;;;;;;2106494;28;19947;-44
2022/08/27 00:17:15;;;;;;;;;;;;;;;;;;2106594;28;19963;-43
2022/08/27 00:18:16;;;;;;;;;;;;;;;;;;2106662;28;19924;-43
2022/08/27 00:19:22;;;;;;;;;;;;;;;;;;2106251;28;19924;-43
2022/08/27 00:20:23;;;;;;;;;;;;;;;;;;2106645;28;19924;-43
2022/08/27 00:21:24;;;;;;;;;;;;;;;;;;2106590;28;19924;-44
2022/08/27 00:22:25;;;;;;;;;;;;;;;;;;2106631;28;19930;-44
2022/08/27 00:23:26;;;;;;;;;;;;;;;;;;2106504;28;19973;-43
2022/08/27 00:24:27;;;;;;;;;;;;;;;;;;2106793;28;19927;-43
2022/08/27 00:25:28;;;;;;;;;;;;;;;;;;2106564;28;19928;-44
2022/08/27 00:26:29;;;;;;;;;;;;;;;;;;2106555;28;20007;-44
2022/08/27 00:27:29;;;;;;;;;;;;;;;;;;2106285;28;19969;-43
2022/08/27 00:28:31;;;;;;;;;;;;;;;;;;2106788;28;19981;-44
2022/08/27 00:29:31;;;;;;;;;;;;;;;;;;2106485;28;20289;-46
2022/08/27 00:30:33;;;;;;;;;;;;;;;;;;2106388;28;19924;-44
2022/08/27 00:31:33;;;;;;;;;;;;;;;;;;2106394;28;19924;-45
2022/08/27 00:32:34;;;;;;;;;;;;;;;;;;2106686;28;19950;-45
2022/08/27 00:33:35;;;;;;;;;;;;;;;;;;2106530;28;20246;-45
2022/08/27 00:34:36;;;;;;;;;;;;;;;;;;2106480;28;20007;-45
2022/08/27 00:35:37;;;;;;;;;;;;;;;;;;2106536;28;19931;-45
2022/08/27 00:36:38;;;;;;;;;;;;;;;;;;2105723;28;19924;-45
2022/08/27 00:37:39;;;;;;;;;;;;;;;;;;2106432;28;19974;-45
2022/08/27 00:38:40;;;;;;;;;;;;;;;;;;2106366;28;20470;-46
2022/08/27 00:39:41;;;;;;;;;;;;;;;;;;2106540;28;19931;-45
2022/08/27 00:40:42;;;;;;;;;;;;;;;;;;2106338;28;19951;-45
2022/08/27 00:41:43;;;;;;;;;;;;;;;;;;2106299;28;19924;-45
2022/08/27 00:42:44;;;;;;;;;;;;;;;;;;2106167;28;19924;-44
2022/08/27 00:43:45;;;;;;;;;;;;;;;;;;2106331;28;20273;-45
2022/08/27 00:44:46;;;;;;;;;;;;;;;;;;2106472;28;19932;-44
2022/08/27 00:45:47;;;;;;;;;;;;;;;;;;2106373;28;20262;-45
2022/08/27 00:46:48;;;;;;;;;;;;;;;;;;2106341;28;19930;-44
2022/08/27 00:47:49;;;;;;;;;;;;;;;;;;2106196;28;20385;-45
2022/08/27 00:48:50;;;;;;;;;;;;;;;;;;2106362;28;19930;-46
2022/08/27 00:49:51;;;;;;;;;;;;;;;;;;2106305;28;19946;-45
2022/08/27 00:50:52;;;;;;;;;;;;;;;;;;2106492;28;19931;-44
2022/08/27 00:51:53;;;;;;;;;;;;;;;;;;2106252;28;19931;-45
2022/08/27 00:52:54;;;;;;;;;;;;;;;;;;2106222;28;19981;-45
2022/08/27 00:53:55;;;;;;;;;;;;;;;;;;2106347;28;19977;-45
2022/08/27 00:54:56;;;;;;;;;;;;;;;;;;2106266;28;19931;-45
2022/08/27 00:55:57;;;;;;;;;;;;;;;;;;2106327;28;19928;-45
2022/08/27 00:56:58;;;;;;;;;;;;;;;;;;2106286;28;19989;-44
2022/08/27 00:57:59;;;;;;;;;;;;;;;;;;2106256;28;20428;-47
2022/08/27 00:58:59;;;;;;;;;;;;;;;;;;2106305;28;20282;-45
2022/08/27 01:00:01;;;;;;;;;;;;;;;;;;2106381;28;19930;-45
2022/08/27 01:01:02;;;;;;;;;;;;;;;;;;2106374;28;19924;-44
2022/08/27 01:02:18;;;;;;;;;;;;;;;;;;2106129;28;20011;-45
2022/08/27 01:03:19;;;;;;;;;;;;;;;;;;2106373;28;19928;-45
2022/08/27 01:04:20;;;;;;;;;;;;;;;;;;2106232;28;20003;-46
2022/08/27 01:05:21;;;;;;;;;;;;;;;;;;2106334;28;19924;-44
2022/08/27 01:06:22;;;;;;;;;;;;;;;;;;2106107;28;19924;-45
2022/08/27 01:07:23;;;;;;;;;;;;;;;;;;2106216;28;19924;-45
2022/08/27 01:08:24;;;;;;;;;;;;;;;;;;2106116;28;19931;-47
2022/08/27 01:09:25;;;;;;;;;;;;;;;;;;2106207;28;19974;-44
2022/08/27 01:10:26;;;;;;;;;;;;;;;;;;2106171;28;20448;-45
2022/08/27 01:11:27;;;;;;;;;;;;;;;;;;2105950;28;19999;-45
2022/08/27 01:12:28;;;;;;;;;;;;;;;;;;2106294;28;19924;-46
2022/08/27 01:13:30;;;;;;;;;;;;;;;;;;2106234;28;19932;-46
2022/08/27 01:14:51;;;;;;;;;;;;;;;;;;2106093;28;20015;-45
2022/08/27 01:15:57;;;;;;;;;;;;;;;;;;2106164;28;19924;-48
2022/08/27 01:16:58;;;;;;;;;;;;;;;;;;2106080;28;20408;-45
2022/08/27 01:17:59;;;;;;;;;;;;;;;;;;2106156;28;20382;-45
2022/08/27 01:19:00;;;;;;;;;;;;;;;;;;2106188;28;19924;-45
2022/08/27 01:20:01;;;;;;;;;;;;;;;;;;2106037;28;19928;-46
2022/08/27 01:21:02;;;;;;;;;;;;;;;;;;2106315;28;19924;-45
2022/08/27 01:22:03;;;;;;;;;;;;;;;;;;2106059;28;19928;-46
2022/08/27 01:23:04;;;;;;;;;;;;;;;;;;2106272;28;19924;-47
2022/08/27 01:24:05;;;;;;;;;;;;;;;;;;2106193;28;19924;-46
2022/08/27 01:25:06;;;;;;;;;;;;;;;;;;2106283;28;20337;-46
2022/08/27 01:26:07;;;;;;;;;;;;;;;;;;2106091;28;19928;-45
2022/08/27 01:27:08;;;;;;;;;;;;;;;;;;2106154;28;19924;-45
2022/08/27 01:28:15;;;;;;;;;;;;;;;;;;2106128;28;19927;-46
2022/08/27 01:29:16;;;;;;;;;;;;;;;;;;2106127;28;20385;-46
2022/08/27 01:30:17;;;;;;;;;;;;;;;;;;2106351;28;20404;-44
2022/08/27 01:31:18;;;;;;;;;;;;;;;;;;2106020;28;19938;-45
2022/08/27 01:32:19;;;;;;;;;;;;;;;;;;2106289;28;20007;-45
2022/08/27 01:33:19;;;;;;;;;;;;;;;;;;2106031;28;19950;-45
2022/08/27 01:34:20;;;;;;;;;;;;;;;;;;2106260;28;19977;-45
2022/08/27 01:35:22;;;;;;;;;;;;;;;;;;2106032;28;19947;-45
2022/08/27 01:36:23;;;;;;;;;;;;;;;;;;2105976;28;20335;-45
2022/08/27 01:37:24;;;;;;;;;;;;;;;;;;2106165;28;19924;-46
2022/08/27 01:38:26;;;;;;;;;;;;;;;;;;2106138;28;19931;-45
2022/08/27 01:39:31;;;;;;;;;;;;;;;;;;2105860;28;20381;-45
2022/08/27 01:40:32;;;;;;;;;;;;;;;;;;2105948;28;19985;-46
2022/08/27 01:41:33;;;;;;;;;;;;;;;;;;2105884;28;19924;-44
2022/08/27 01:42:34;;;;;;;;;;;;;;;;;;2106008;28;19925;-46
2022/08/27 01:43:35;;;;;;;;;;;;;;;;;;2106093;28;19930;-45
2022/08/27 01:44:36;;;;;;;;;;;;;;;;;;2105946;28;20304;-45
2022/08/27 01:45:37;;;;;;;;;;;;;;;;;;2106140;28;19931;-45
2022/08/27 01:46:37;;;;;;;;;;;;;;;;;;2105959;28;19998;-45
2022/08/27 01:47:39;;;;;;;;;;;;;;;;;;2105837;28;19936;-45
2022/08/27 01:48:39;;;;;;;;;;;;;;;;;;2106123;28;19961;-45
2022/08/27 01:49:40;;;;;;;;;;;;;;;;;;2107679;28;20435;-45
2022/08/27 01:50:41;;;;;;;;;;;;;;;;;;2107374;28;19924;-45
2022/08/27 01:51:42;;;;;;;;;;;;;;;;;;2107505;28;19931;-45
2022/08/27 01:52:43;;;;;;;;;;;;;;;;;;2107456;28;19924;-45
2022/08/27 01:53:44;;;;;;;;;;;;;;;;;;2107362;28;19924;-46
2022/08/27 01:54:45;;;;;;;;;;;;;;;;;;2107471;28;20404;-45
2022/08/27 01:55:46;;;;;;;;;;;;;;;;;;2107463;28;19924;-45
2022/08/27 01:56:48;;;;;;;;;;;;;;;;;;2107543;28;19924;-46
2022/08/27 01:57:49;;;;;;;;;;;;;;;;;;2107678;28;20009;-46
2022/08/27 01:58:51;;;;;;;;;;;;;;;;;;2107509;28;20332;-46
2022/08/27 01:59:52;;;;;;;;;;;;;;;;;;2107413;28;20404;-48
2022/08/27 02:00:52;;;;;;;;;;;;;;;;;;2107552;28;19985;-45
2022/08/27 02:01:56;;;;;;;;;;;;;;;;;;2107449;28;20377;-46
2022/08/27 02:02:57;;;;;;;;;;;;;;;;;;2107483;28;19955;-46
2022/08/27 02:03:59;;;;;;;;;;;;;;;;;;2107529;28;19931;-45
2022/08/27 02:04:59;;;;;;;;;;;;;;;;;;2107452;28;19935;-45
2022/08/27 02:06:00;;;;;;;;;;;;;;;;;;2107420;28;20008;-46
2022/08/27 02:07:01;;;;;;;;;;;;;;;;;;2107293;28;19924;-45
2022/08/27 02:08:02;;;;;;;;;;;;;;;;;;2107339;28;19969;-45
2022/08/27 02:09:03;;;;;;;;;;;;;;;;;;2107392;28;19924;-45
2022/08/27 02:10:04;;;;;;;;;;;;;;;;;;2107548;28;20061;-45
2022/08/27 02:11:05;;;;;;;;;;;;;;;;;;2107246;28;19924;-45
2022/08/27 02:12:06;;;;;;;;;;;;;;;;;;2107471;28;20328;-45
2022/08/27 02:13:07;;;;;;;;;;;;;;;;;;2107466;28;19931;-46
2022/08/27 02:14:08;;;;;;;;;;;;;;;;;;2107362;28;20069;-45
2022/08/27 02:15:14;;;;;;;;;;;;;;;;;;2107564;28;19970;-45
2022/08/27 02:16:15;;;;;;;;;;;;;;;;;;2107250;28;19970;-45
2022/08/27 02:17:16;;;;;;;;;;;;;;;;;;2107480;28;19924;-45
2022/08/27 02:18:17;;;;;;;;;;;;;;;;;;2107304;28;19924;-45
2022/08/27 02:19:17;;;;;;;;;;;;;;;;;;2107427;28;19932;-47
2022/08/27 02:20:18;;;;;;;;;;;;;;;;;;2107323;28;20313;-44
2022/08/27 02:21:19;;;;;;;;;;;;;;;;;;2107240;28;19928;-45
2022/08/27 02:22:20;;;;;;;;;;;;;;;;;;2107385;28;19924;-45
2022/08/27 02:23:21;;;;;;;;;;;;;;;;;;2107434;28;19932;-46
2022/08/27 02:24:22;;;;;;;;;;;;;;;;;;2107308;28;20284;-45
2022/08/27 02:25:23;;;;;;;;;;;;;;;;;;2107244;28;19924;-46
2022/08/27 02:26:24;;;;;;;;;;;;;;;;;;2107187;28;20010;-44
2022/08/27 02:27:25;;;;;;;;;;;;;;;;;;2107200;28;19973;-45
2022/08/27 02:28:26;;;;;;;;;;;;;;;;;;2107404;28;19924;-44
2022/08/27 02:29:26;;;;;;;;;;;;;;;;;;2107302;28;19924;-44
2022/08/27 02:30:27;;;;;;;;;;;;;;;;;;2107410;28;19924;-49
2022/08/27 02:31:28;;;;;;;;;;;;;;;;;;2107173;28;19928;-46
2022/08/27 02:32:29;;;;;;;;;;;;;;;;;;2107195;28;19936;-45
2022/08/27 02:33:32;;;;;;;;;;;;;;;;;;2107168;28;19924;-45
2022/08/27 02:34:33;;;;;;;;;;;;;;;;;;2107186;28;19981;-46
2022/08/27 02:35:34;;;;;;;;;;;;;;;;;;2107120;28;19932;-46
2022/08/27 02:36:36;;;;;;;;;;;;;;;;;;2107024;28;19924;-45
2022/08/27 02:37:36;;;;;;;;;;;;;;;;;;2107275;28;19924;-44
2022/08/27 02:38:38;;;;;;;;;;;;;;;;;;2107300;28;19953;-44
2022/08/27 02:39:38;;;;;;;;;;;;;;;;;;2107384;28;19927;-44
2022/08/27 02:40:42;;;;;;;;;;;;;;;;;;2107153;28;19932;-43
2022/08/27 02:41:43;;;;;;;;;;;;;;;;;;2107085;28;20323;-44
2022/08/27 02:42:44;;;;;;;;;;;;;;;;;;2107133;28;19932;-44
2022/08/27 02:43:45;;;;;;;;;;;;;;;;;;2107339;28;19924;-43
2022/08/27 02:44:46;;;;;;;;;;;;;;;;;;2107145;28;20449;-43
2022/08/27 02:45:47;;;;;;;;;;;;;;;;;;2107179;28;19924;-42
2022/08/27 02:46:48;;;;;;;;;;;;;;;;;;2107093;28;19931;-42
2022/08/27 02:47:52;;;;;;;;;;;;;;;;;;2107044;28;19924;-45
2022/08/27 02:48:53;;;;;;;;;;;;;;;;;;2107132;28;19928;-43
2022/08/27 02:49:54;;;;;;;;;;;;;;;;;;2107350;28;19924;-42
2022/08/27 02:50:55;;;;;;;;;;;;;;;;;;2107302;28;19931;-44
2022/08/27 02:51:56;;;;;;;;;;;;;;;;;;2106827;28;20392;-45
2022/08/27 02:52:57;;;;;;;;;;;;;;;;;;2107231;28;19935;-46
2022/08/27 02:53:58;;;;;;;;;;;;;;;;;;2107232;28;19924;-44
2022/08/27 02:54:59;;;;;;;;;;;;;;;;;;2107103;28;19935;-45
2022/08/27 02:56:00;;;;;;;;;;;;;;;;;;2107148;28;19924;-45
2022/08/27 02:57:01;;;;;;;;;;;;;;;;;;2106990;28;20331;-46
2022/08/27 02:58:02;;;;;;;;;;;;;;;;;;2106947;28;19924;-45
2022/08/27 02:59:03;;;;;;;;;;;;;;;;;;2107127;28;20398;-46
2022/08/27 03:00:04;;;;;;;;;;;;;;;;;;2106915;28;19924;-45
2022/08/27 03:01:05;;;;;;;;;;;;;;;;;;2106977;28;20437;-44
2022/08/27 03:02:06;;;;;;;;;;;;;;;;;;2107064;28;20377;-45
2022/08/27 03:03:09;;;;;;;;;;;;;;;;;;2107125;28;19924;-45
2022/08/27 03:04:10;;;;;;;;;;;;;;;;;;2107092;28;19928;-44
2022/08/27 03:05:11;;;;;;;;;;;;;;;;;;2106978;28;19924;-44
2022/08/27 03:06:12;;;;;;;;;;;;;;;;;;2107050;28;19931;-46
2022/08/27 03:07:13;;;;;;;;;;;;;;;;;;2106982;28;20319;-47
2022/08/27 03:08:19;;;;;;;;;;;;;;;;;;2107171;28;20305;-44
2022/08/27 03:09:20;;;;;;;;;;;;;;;;;;2107290;28;19928;-45
2022/08/27 03:10:21;;;;;;;;;;;;;;;;;;2107309;28;19924;-45
2022/08/27 03:11:22;;;;;;;;;;;;;;;;;;2106861;28;19924;-44
2022/08/27 03:12:23;;;;;;;;;;;;;;;;;;2106975;28;19928;-45
2022/08/27 03:13:25;;;;;;;;;;;;;;;;;;2106979;28;19931;-46
2022/08/27 03:14:26;;;;;;;;;;;;;;;;;;2106956;28;19924;-44
2022/08/27 03:15:27;;;;;;;;;;;;;;;;;;2107063;28;20440;-45
2022/08/27 03:16:28;;;;;;;;;;;;;;;;;;2106849;28;19924;-45
2022/08/27 03:18:48;;;;;;;;;;;;;;;;;;2107125;28;19931;-43
2022/08/27 03:19:49;;;;;;;;;;;;;;;;;;2106879;28;19946;-43
2022/08/27 03:20:50;;;;;;;;;;;;;;;;;;2106875;28;20246;-43
2022/08/27 03:21:51;;;;;;;;;;;;;;;;;;2106951;28;19925;-43
2022/08/27 03:22:55;;;;;;;;;;;;;;;;;;2106867;28;19935;-43
2022/08/27 03:23:56;;;;;;;;;;;;;;;;;;2106796;28;19932;-44
2022/08/27 03:24:57;;;;;;;;;;;;;;;;;;2106916;28;19935;-43
2022/08/27 03:25:57;;;;;;;;;;;;;;;;;;2106792;28;20396;-43
2022/08/27 03:26:58;;;;;;;;;;;;;;;;;;2106952;28;19924;-43
2022/08/27 03:27:59;;;;;;;;;;;;;;;;;;2106846;28;19939;-43
2022/08/27 03:29:00;;;;;;;;;;;;;;;;;;2106751;28;19979;-43
2022/08/27 03:30:02;;;;;;;;;;;;;;;;;;2107101;28;20432;-45
2022/08/27 03:31:04;;;;;;;;;;;;;;;;;;2106939;28;19951;-44
2022/08/27 03:32:05;;;;;;;;;;;;;;;;;;2106490;28;20300;-46
2022/08/27 03:33:07;;;;;;;;;;;;;;;;;;2106889;28;19970;-44
2022/08/27 03:34:09;;;;;;;;;;;;;;;;;;2106825;28;19928;-45
2022/08/27 03:35:10;;;;;;;;;;;;;;;;;;2106828;28;20012;-44
2022/08/27 03:36:11;;;;;;;;;;;;;;;;;;2106689;28;19932;-45
2022/08/27 03:37:12;;;;;;;;;;;;;;;;;;2106955;28;19924;-44
2022/08/27 03:38:13;;;;;;;;;;;;;;;;;;2106951;28;20030;-45
2022/08/27 03:39:14;;;;;;;;;;;;;;;;;;2107019;28;19924;-43
2022/08/27 03:40:15;;;;;;;;;;;;;;;;;;2106942;28;19984;-43
2022/08/27 03:41:16;;;;;;;;;;;;;;;;;;2106832;28;19932;-43
2022/08/27 03:42:18;;;;;;;;;;;;;;;;;;2106866;28;19977;-43
2022/08/27 03:43:19;;;;;;;;;;;;;;;;;;2106698;28;19931;-44
2022/08/27 03:44:20;;;;;;;;;;;;;;;;;;2106740;28;20307;-43
2022/08/27 03:45:22;;;;;;;;;;;;;;;;;;2107141;28;20016;-45
2022/08/27 03:46:26;;;;;;;;;;;;;;;;;;2106783;28;19931;-44
2022/08/27 03:47:27;;;;;;;;;;;;;;;;;;2106676;28;19931;-43
2022/08/27 03:48:28;;;;;;;;;;;;;;;;;;2106939;28;19924;-43
2022/08/27 03:49:29;;;;;;;;;;;;;;;;;;2106864;28;19924;-45
2022/08/27 03:50:30;;;;;;;;;;;;;;;;;;2106965;28;19928;-45
2022/08/27 03:51:31;;;;;;;;;;;;;;;;;;2106721;28;20043;-44
2022/08/27 03:52:32;;;;;;;;;;;;;;;;;;2106550;28;20057;-45
2022/08/27 03:53:32;;;;;;;;;;;;;;;;;;2106717;28;19931;-44
2022/08/27 03:54:34;;;;;;;;;;;;;;;;;;2106996;28;19938;-43
2022/08/27 03:55:35;;;;;;;;;;;;;;;;;;2106583;28;19924;-43
2022/08/27 03:56:38;;;;;;;;;;;;;;;;;;2106643;28;19925;-43
2022/08/27 03:57:39;;;;;;;;;;;;;;;;;;2106640;28;19924;-43
2022/08/27 03:58:40;;;;;;;;;;;;;;;;;;2106569;28;19928;-43
2022/08/27 03:59:41;;;;;;;;;;;;;;;;;;2106842;28;19928;-45
2022/08/27 04:00:42;;;;;;;;;;;;;;;;;;2106794;28;20373;-45
2022/08/27 04:01:43;;;;;;;;;;;;;;;;;;2106455;28;19938;-45
2022/08/27 04:02:44;;;;;;;;;;;;;;;;;;2106767;28;19969;-46
2022/08/27 04:03:45;;;;;;;;;;;;;;;;;;2106586;28;19924;-44
2022/08/27 04:04:46;;;;;;;;;;;;;;;;;;2106764;28;19924;-46
2022/08/27 04:05:47;;;;;;;;;;;;;;;;;;2106728;28;19924;-46
2022/08/27 04:06:48;;;;;;;;;;;;;;;;;;2106669;28;20018;-45
2022/08/27 04:07:48;;;;;;;;;;;;;;;;;;2106722;28;19932;-45
2022/08/27 04:08:49;;;;;;;;;;;;;;;;;;2106503;28;19928;-45
2022/08/27 04:09:50;;;;;;;;;;;;;;;;;;2107123;28;20325;-44
2022/08/27 04:10:53;;;;;;;;;;;;;;;;;;2106590;28;19924;-45
2022/08/27 04:11:53;;;;;;;;;;;;;;;;;;2105629;28;19965;-44
2022/08/27 04:12:55;;;;;;;;;;;;;;;;;;2106798;28;19924;-45
2022/08/27 04:13:55;;;;;;;;;;;;;;;;;;2106634;28;19977;-46
2022/08/27 04:14:57;;;;;;;;;;;;;;;;;;2106549;28;20431;-46
2022/08/27 04:15:57;;;;;;;;;;;;;;;;;;2106625;28;19928;-45
2022/08/27 04:16:59;;;;;;;;;;;;;;;;;;2106336;28;19975;-44
2022/08/27 04:18:00;;;;;;;;;;;;;;;;;;2106658;28;19935;-44
2022/08/27 04:19:01;;;;;;;;;;;;;;;;;;2106666;28;19924;-44
2022/08/27 04:20:02;;;;;;;;;;;;;;;;;;2106454;28;19924;-44
2022/08/27 04:21:23;;;;;;;;;;;;;;;;;;2106387;28;20350;-45
2022/08/27 04:22:23;;;;;;;;;;;;;;;;;;2106497;28;19924;-45
2022/08/27 04:23:24;;;;;;;;;;;;;;;;;;2106432;28;19924;-44
2022/08/27 04:24:25;;;;;;;;;;;;;;;;;;2106663;28;20312;-44
2022/08/27 04:25:27;;;;;;;;;;;;;;;;;;2106512;28;19924;-44
2022/08/27 04:26:28;;;;;;;;;;;;;;;;;;2106345;28;20404;-44
2022/08/27 04:27:30;;;;;;;;;;;;;;;;;;2106321;28;19924;-45
2022/08/27 04:28:31;;;;;;;;;;;;;;;;;;2106476;28;19932;-44
2022/08/27 04:29:36;;;;;;;;;;;;;;;;;;2106371;28;19924;-46
2022/08/27 04:30:37;;;;;;;;;;;;;;;;;;2106472;28;19946;-44
2022/08/27 04:31:38;;;;;;;;;;;;;;;;;;2106342;28;19924;-45
2022/08/27 04:32:39;;;;;;;;;;;;;;;;;;2106585;28;20189;-44
2022/08/27 04:33:40;;;;;;;;;;;;;;;;;;2106472;28;19928;-45
2022/08/27 04:34:41;;;;;;;;;;;;;;;;;;2106552;28;20376;-45
2022/08/27 04:35:42;;;;;;;;;;;;;;;;;;2106549;28;19957;-43
2022/08/27 04:36:43;;;;;;;;;;;;;;;;;;2106445;28;19958;-43
2022/08/27 04:37:44;;;;;;;;;;;;;;;;;;2106454;28;20012;-45
2022/08/27 04:38:45;;;;;;;;;;;;;;;;;;2106374;28;20254;-43
2022/08/27 04:39:46;;;;;;;;;;;;;;;;;;2106363;28;19989;-44
2022/08/27 04:42:09;;;;;;;;;;;;;;;;;;2106428;28;19928;-45
2022/08/27 04:43:10;;;;;;;;;;;;;;;;;;2106395;28;20308;-44
2022/08/27 04:44:11;;;;;;;;;;;;;;;;;;2106682;28;19924;-43
2022/08/27 04:45:12;;;;;;;;;;;;;;;;;;2106711;28;19924;-44
2022/08/27 04:46:13;;;;;;;;;;;;;;;;;;2106342;28;19932;-43
2022/08/27 04:47:15;;;;;;;;;;;;;;;;;;2106495;28;19931;-43
2022/08/27 04:48:16;;;;;;;;;;;;;;;;;;2106293;28;19943;-42
2022/08/27 04:49:17;;;;;;;;;;;;;;;;;;2106360;28;19924;-44
2022/08/27 04:50:18;;;;;;;;;;;;;;;;;;2106400;28;19977;-43
2022/08/27 04:51:20;;;;;;;;;;;;;;;;;;2106207;28;19924;-42
2022/08/27 04:52:21;;;;;;;;;;;;;;;;;;2106451;28;19924;-44
2022/08/27 04:53:22;;;;;;;;;;;;;;;;;;2106377;28;20369;-45
2022/08/27 04:54:23;;;;;;;;;;;;;;;;;;2106369;28;19924;-44
2022/08/27 04:55:33;;;;;;;;;;;;;;;;;;2106312;28;19993;-42
2022/08/27 04:56:34;;;;;;;;;;;;;;;;;;2106221;28;20146;-43
2022/08/27 04:57:36;;;;;;;;;;;;;;;;;;2106363;28;19924;-43
2022/08/27 04:58:37;;;;;;;;;;;;;;;;;;2106267;28;19986;-46
2022/08/27 04:59:38;;;;;;;;;;;;;;;;;;2106466;28;20015;-44
2022/08/27 05:00:39;;;;;;;;;;;;;;;;;;2106232;28;19924;-42
2022/08/27 05:01:40;;;;;;;;;;;;;;;;;;2106161;28;19951;-42
2022/08/27 05:02:41;;;;;;;;;;;;;;;;;;2106229;28;19931;-44
2022/08/27 05:03:43;;;;;;;;;;;;;;;;;;2106224;28;19924;-43
2022/08/27 05:04:44;;;;;;;;;;;;;;;;;;2106283;28;19927;-42
2022/08/27 05:05:45;;;;;;;;;;;;;;;;;;2106186;28;19924;-44
2022/08/27 05:06:48;;;;;;;;;;;;;;;;;;2106218;28;20288;-42
2022/08/27 05:07:48;;;;;;;;;;;;;;;;;;2106136;28;20404;-43
2022/08/27 05:08:50;;;;;;;;;;;;;;;;;;2106328;28;19924;-46
2022/08/27 05:09:51;;;;;;;;;;;;;;;;;;2106189;28;19924;-44
2022/08/27 05:10:52;;;;;;;;;;;;;;;;;;2106169;28;19928;-43
2022/08/27 05:11:54;;;;;;;;;;;;;;;;;;2105944;28;20384;-43
2022/08/27 05:12:54;;;;;;;;;;;;;;;;;;2106353;28;19924;-43
2022/08/27 05:14:00;;;;;;;;;;;;;;;;;;2106443;28;19932;-43
2022/08/27 05:15:01;;;;;;;;;;;;;;;;;;2106366;28;19977;-44
2022/08/27 05:16:02;;;;;;;;;;;;;;;;;;2106169;28;20377;-42
2022/08/27 05:17:02;;;;;;;;;;;;;;;;;;2106113;28;20278;-43
2022/08/27 05:18:03;;;;;;;;;;;;;;;;;;2106318;28;19930;-42
2022/08/27 05:19:04;;;;;;;;;;;;;;;;;;2106199;28;19978;-43
2022/08/27 05:20:06;;;;;;;;;;;;;;;;;;2106208;28;20019;-43
2022/08/27 05:21:07;;;;;;;;;;;;;;;;;;2106049;28;19923;-45
2022/08/27 05:22:08;;;;;;;;;;;;;;;;;;2106081;28;20400;-42
2022/08/27 05:23:10;;;;;;;;;;;;;;;;;;2105975;28;20373;-43
2022/08/27 05:24:11;;;;;;;;;;;;;;;;;;2105987;28;19925;-43
2022/08/27 05:25:11;;;;;;;;;;;;;;;;;;2106060;28;19931;-45
2022/08/27 05:26:13;;;;;;;;;;;;;;;;;;2106275;28;20360;-43
2022/08/27 05:27:14;;;;;;;;;;;;;;;;;;2106311;28;19928;-43
2022/08/27 05:28:14;;;;;;;;;;;;;;;;;;2106144;28;19924;-41
2022/08/27 05:29:15;;;;;;;;;;;;;;;;;;2106186;28;19970;-43
2022/08/27 05:30:16;;;;;;;;;;;;;;;;;;2106181;28;19928;-42
2022/08/27 05:31:18;;;;;;;;;;;;;;;;;;2106179;28;20362;-44
2022/08/27 05:32:19;;;;;;;;;;;;;;;;;;2106106;28;19924;-44
2022/08/27 05:33:20;;;;;;;;;;;;;;;;;;2106236;28;19928;-44
2022/08/27 05:34:21;;;;;;;;;;;;;;;;;;2106050;28;19952;-44
2022/08/27 05:35:27;;;;;;;;;;;;;;;;;;2106293;28;19953;-42
2022/08/27 05:36:28;;;;;;;;;;;;;;;;;;2105877;28;20324;-44
2022/08/27 05:37:29;;;;;;;;;;;;;;;;;;2106435;28;19976;-45
2022/08/27 05:38:30;;;;;;;;;;;;;;;;;;2106003;28;20439;-44
2022/08/27 05:39:31;;;;;;;;;;;;;;;;;;2106065;28;19949;-45
2022/08/27 05:40:32;;;;;;;;;;;;;;;;;;2106070;28;20296;-44
2022/08/27 05:41:33;;;;;;;;;;;;;;;;;;2106112;28;19979;-44
2022/08/27 05:42:34;;;;;;;;;;;;;;;;;;2106023;28;19924;-45
2022/08/27 05:43:35;;;;;;;;;;;;;;;;;;2106007;28;19954;-44
2022/08/27 05:44:36;;;;;;;;;;;;;;;;;;2106079;28;19924;-45
2022/08/27 05:45:41;;;;;;;;;;;;;;;;;;2106010;28;19974;-44
2022/08/27 05:46:42;;;;;;;;;;;;;;;;;;2106420;28;19943;-45
2022/08/27 05:47:43;;;;;;;;;;;;;;;;;;2106023;28;19931;-44
2022/08/27 05:48:45;;;;;;;;;;;;;;;;;;2106456;28;20324;-44
2022/08/27 05:49:46;;;;;;;;;;;;;;;;;;2106228;28;19925;-43
2022/08/27 05:50:47;;;;;;;;;;;;;;;;;;2106002;28;20080;-45
2022/08/27 05:51:48;;;;;;;;;;;;;;;;;;2105872;28;19924;-43
2022/08/27 05:52:49;;;;;;;;;;;;;;;;;;2106124;28;19924;-44
2022/08/27 05:53:50;;;;;;;;;;;;;;;;;;2105899;28;19928;-42
2022/08/27 05:54:51;;;;;;;;;;;;;;;;;;2106156;28;19924;-45
2022/08/27 05:55:52;;;;;;;;;;;;;;;;;;2105998;28;19930;-46
2022/08/27 05:56:53;;;;;;;;;;;;;;;;;;2106259;28;19951;-43
2022/08/27 05:57:54;;;;;;;;;;;;;;;;;;2106203;28;19931;-44
2022/08/27 06:01:33;;;;;;;;;;;;;;;;;;2105829;28;19924;-44
2022/08/27 06:02:36;;;;;;;;;;;;;;;;;;2106264;28;19931;-45
2022/08/27 06:03:36;;;;;;;;;;;;;;;;;;2106069;28;19924;-43
2022/08/27 06:04:37;;;;;;;;;;;;;;;;;;2106051;28;20340;-43
2022/08/27 06:05:38;;;;;;;;;;;;;;;;;;2105930;28;19924;-43
2022/08/27 06:06:39;;;;;;;;;;;;;;;;;;2105939;28;19958;-43
2022/08/27 06:07:40;;;;;;;;;;;;;;;;;;2106045;28;19913;-44
2022/08/27 06:08:41;;;;;;;;;;;;;;;;;;2106010;28;20318;-43
2022/08/27 06:09:42;;;;;;;;;;;;;;;;;;2105919;28;19931;-44
2022/08/27 06:10:43;;;;;;;;;;;;;;;;;;2105964;28;19973;-42
2022/08/27 06:11:45;;;;;;;;;;;;;;;;;;2105757;28;19924;-44
2022/08/27 06:12:45;;;;;;;;;;;;;;;;;;2105802;28;19939;-45
2022/08/27 06:13:47;;;;;;;;;;;;;;;;;;2105838;28;19966;-45
2022/08/27 06:14:48;;;;;;;;;;;;;;;;;;2106007;28;20297;-45
2022/08/27 06:15:48;;;;;;;;;;;;;;;;;;2105981;28;19932;-46
2022/08/27 06:16:50;;;;;;;;;;;;;;;;;;2106273;28;19924;-44
2022/08/27 06:17:51;;;;;;;;;;;;;;;;;;2105957;28;19932;-44
2022/08/27 06:18:52;;;;;;;;;;;;;;;;;;2105976;28;19943;-43
2022/08/27 06:19:53;;;;;;;;;;;;;;;;;;2105766;28;19924;-44
2022/08/27 06:20:54;;;;;;;;;;;;;;;;;;2105940;28;20354;-44
2022/08/27 06:21:57;;;;;;;;;;;;;;;;;;2105688;28;19924;-43
2022/08/27 06:23:01;;;;;;;;;;;;;;;;;;2106169;28;20193;-44
2022/08/27 06:24:02;;;;;;;;;;;;;;;;;;2106224;28;19928;-45
2022/08/27 06:25:03;;;;;;;;;;;;;;;;;;2106033;28;20327;-46
2022/08/27 06:26:04;;;;;;;;;;;;;;;;;;2106051;28;19924;-43
2022/08/27 06:27:05;;;;;;;;;;;;;;;;;;2105765;28;19924;-44
2022/08/27 06:28:06;;;;;;;;;;;;;;;;;;2105733;28;20384;-44
2022/08/27 06:29:08;;;;;;;;;;;;;;;;;;2105818;28;20427;-44
2022/08/27 06:30:09;;;;;;;;;;;;;;;;;;2105788;28;19924;-45
2022/08/27 06:31:10;;;;;;;;;;;;;;;;;;2105769;28;19928;-44
2022/08/27 06:32:11;;;;;;;;;;;;;;;;;;2105857;28;20326;-44
2022/08/27 06:33:11;;;;;;;;;;;;;;;;;;2105811;28;19938;-43
2022/08/27 06:34:12;;;;;;;;;;;;;;;;;;2105885;28;19924;-45
2022/08/27 06:35:14;;;;;;;;;;;;;;;;;;2106654;28;20377;-45
2022/08/27 06:36:15;;;;;;;;;;;;;;;;;;2107098;28;19924;-43
2022/08/27 06:37:16;;;;;;;;;;;;;;;;;;2107197;28;19924;-44
2022/08/27 06:38:17;;;;;;;;;;;;;;;;;;2107355;28;19924;-44
2022/08/27 06:39:18;;;;;;;;;;;;;;;;;;2107229;28;19966;-44
2022/08/27 06:40:19;;;;;;;;;;;;;;;;;;2107137;28;20381;-44
2022/08/27 06:41:19;;;;;;;;;;;;;;;;;;2107191;28;20023;-43
2022/08/27 06:42:25;;;;;;;;;;;;;;;;;;2107322;28;19968;-43
2022/08/27 06:43:26;;;;;;;;;;;;;;;;;;2107038;28;20407;-44
2022/08/27 06:44:27;;;;;;;;;;;;;;;;;;2107277;28;19931;-44
2022/08/27 06:45:27;;;;;;;;;;;;;;;;;;2107500;28;19924;-46
2022/08/27 06:46:28;;;;;;;;;;;;;;;;;;2106957;28;20058;-43
2022/08/27 06:47:30;;;;;;;;;;;;;;;;;;2107328;28;20274;-45
2022/08/27 06:48:31;;;;;;;;;;;;;;;;;;2107046;28;19928;-45
2022/08/27 06:49:32;;;;;;;;;;;;;;;;;;2107149;28;19928;-45
2022/08/27 06:50:33;;;;;;;;;;;;;;;;;;2107125;28;20411;-46
2022/08/27 06:51:34;;;;;;;;;;;;;;;;;;2107136;28;19924;-45
2022/08/27 06:52:35;;;;;;;;;;;;;;;;;;2107167;28;19928;-45
2022/08/27 06:53:36;;;;;;;;;;;;;;;;;;2107545;28;19927;-45
2022/08/27 06:54:39;;;;;;;;;;;;;;;;;;2107319;28;20385;-43
2022/08/27 06:55:40;;;;;;;;;;;;;;;;;;2107173;28;19977;-44
2022/08/27 06:56:41;;;;;;;;;;;;;;;;;;2107196;28;19928;-43
2022/08/27 06:57:42;;;;;;;;;;;;;;;;;;2107047;28;19928;-43
2022/08/27 06:58:43;;;;;;;;;;;;;;;;;;2107201;28;19942;-43
2022/08/27 06:59:44;;;;;;;;;;;;;;;;;;2107068;28;19924;-43
2022/08/27 07:00:45;;;;;;;;;;;;;;;;;;2107168;28;19928;-42
2022/08/27 07:01:50;;;;;;;;;;;;;;;;;;2106928;28;19928;-43
2022/08/27 07:02:52;;;;;;;;;;;;;;;;;;2107190;28;19928;-44
2022/08/27 07:03:53;;;;;;;;;;;;;;;;;;2107296;28;20303;-43
2022/08/27 07:04:54;;;;;;;;;;;;;;;;;;2107046;28;19924;-43